Rinard, Iowa
Current Conditions -  °F | °C
As of 4:55 AM on Friday 28 Nov 2014 (Local Time) from KFOD Reporting Station
Broken Clouds Broken Clouds  
Wind Chill:   Ceiling: 11000
Heat Index: 18°   Visibility: 10mi
Dew Point: 10°   Wind: 9mph
Humidity: 73%   Direction: 150°SSE
Pressure: 30"   Gusts: 16mph
Location:  42.34°N, 94.49°W
Report Text: KFOD 281055Z AUTO 15008G14KT 10SM BKN110 M08/M12 A3000 RMK AO1
Loading
Personal Weather Stations






























Interactive Weather Map New forecast layout! Learn more

10-Day Weather Forecast

Advertisements
Track Severe Weather on mobile